sensor_id;sensor_type;location;lat;lon;timestamp;P1;durP1;ratioP1;P2;durP2;ratioP2
46589;SDS011;32313;48.722;9.362;2022-09-09T00:00:32;5.40;;;4.97;;
46589;SDS011;32313;48.722;9.362;2022-09-09T00:03:25;6.80;;;5.03;;
46589;SDS011;32313;48.722;9.362;2022-09-09T00:06:12;7.97;;;5.10;;
46589;SDS011;32313;48.722;9.362;2022-09-09T00:11:28;6.17;;;4.53;;
46589;SDS011;32313;48.722;9.362;2022-09-09T00:14:08;7.17;;;5.57;;
46589;SDS011;32313;48.722;9.362;2022-09-09T00:16:40;7.77;;;5.40;;
46589;SDS011;32313;48.722;9.362;2022-09-09T00:24:48;9.53;;;5.90;;
46589;SDS011;32313;48.722;9.362;2022-09-09T00:27:21;6.67;;;5.23;;
46589;SDS011;32313;48.722;9.362;2022-09-09T00:32:29;5.60;;;5.10;;
46589;SDS011;32313;48.722;9.362;2022-09-09T00:35:10;7.97;;;5.20;;
46589;SDS011;32313;48.722;9.362;2022-09-09T00:37:56;7.17;;;5.27;;
46589;SDS011;32313;48.722;9.362;2022-09-09T00:43:21;8.50;;;5.13;;
46589;SDS011;32313;48.722;9.362;2022-09-09T00:46:03;5.20;;;4.70;;
46589;SDS011;32313;48.722;9.362;2022-09-09T00:54:03;7.07;;;4.97;;
46589;SDS011;32313;48.722;9.362;2022-09-09T00:57:11;6.03;;;4.23;;
46589;SDS011;32313;48.722;9.362;2022-09-09T00:59:48;12.07;;;5.90;;
46589;SDS011;32313;48.722;9.362;2022-09-09T01:02:21;14.93;;;6.10;;
46589;SDS011;32313;48.722;9.362;2022-09-09T01:05:02;10.43;;;5.67;;
46589;SDS011;32313;48.722;9.362;2022-09-09T01:07:36;8.93;;;5.30;;
46589;SDS011;32313;48.722;9.362;2022-09-09T01:10:03;6.70;;;5.30;;
46589;SDS011;32313;48.722;9.362;2022-09-09T01:12:38;8.43;;;5.90;;
46589;SDS011;32313;48.722;9.362;2022-09-09T01:15:10;6.60;;;5.00;;
46589;SDS011;32313;48.722;9.362;2022-09-09T01:20:24;6.63;;;4.73;;
46589;SDS011;32313;48.722;9.362;2022-09-09T01:28:17;10.30;;;5.43;;
46589;SDS011;32313;48.722;9.362;2022-09-09T01:30:48;5.70;;;5.03;;
46589;SDS011;32313;48.722;9.362;2022-09-09T01:33:17;8.40;;;5.60;;
46589;SDS011;32313;48.722;9.362;2022-09-09T01:38:17;7.33;;;5.13;;
46589;SDS011;32313;48.722;9.362;2022-09-09T01:40:44;7.40;;;5.40;;
46589;SDS011;32313;48.722;9.362;2022-09-09T01:43:10;7.80;;;5.33;;
46589;SDS011;32313;48.722;9.362;2022-09-09T01:45:36;11.17;;;5.30;;
46589;SDS011;32313;48.722;9.362;2022-09-09T01:48:04;8.53;;;5.43;;
46589;SDS011;32313;48.722;9.362;2022-09-09T01:50:44;7.57;;;5.33;;
46589;SDS011;32313;48.722;9.362;2022-09-09T01:53:11;7.23;;;5.50;;
46589;SDS011;32313;48.722;9.362;2022-09-09T01:55:39;5.53;;;4.97;;
46589;SDS011;32313;48.722;9.362;2022-09-09T01:58:25;7.37;;;5.43;;
46589;SDS011;32313;48.722;9.362;2022-09-09T02:01:05;5.83;;;4.97;;
46589;SDS011;32313;48.722;9.362;2022-09-09T02:03:41;9.73;;;5.20;;
46589;SDS011;32313;48.722;9.362;2022-09-09T02:09:16;7.17;;;5.07;;
46589;SDS011;32313;48.722;9.362;2022-09-09T02:11:44;5.27;;;4.83;;
46589;SDS011;32313;48.722;9.362;2022-09-09T02:14:22;15.17;;;7.63;;
46589;SDS011;32313;48.722;9.362;2022-09-09T02:16:54;14.03;;;7.50;;
46589;SDS011;32313;48.722;9.362;2022-09-09T02:19:53;15.67;;;8.00;;
46589;SDS011;32313;48.722;9.362;2022-09-09T02:22:38;17.80;;;7.53;;
46589;SDS011;32313;48.722;9.362;2022-09-09T02:25:08;11.40;;;6.47;;
46589;SDS011;32313;48.722;9.362;2022-09-09T02:27:37;12.90;;;6.67;;
46589;SDS011;32313;48.722;9.362;2022-09-09T02:30:05;9.90;;;6.50;;
46589;SDS011;32313;48.722;9.362;2022-09-09T02:32:43;10.07;;;6.33;;
46589;SDS011;32313;48.722;9.362;2022-09-09T02:35:14;11.63;;;5.83;;
46589;SDS011;32313;48.722;9.362;2022-09-09T02:37:44;9.63;;;6.43;;
46589;SDS011;32313;48.722;9.362;2022-09-09T02:40:14;9.43;;;5.53;;
46589;SDS011;32313;48.722;9.362;2022-09-09T02:42:47;6.17;;;5.60;;
46589;SDS011;32313;48.722;9.362;2022-09-09T02:45:16;6.73;;;5.70;;
46589;SDS011;32313;48.722;9.362;2022-09-09T02:50:15;7.67;;;6.10;;
46589;SDS011;32313;48.722;9.362;2022-09-09T02:52:48;7.40;;;6.03;;
46589;SDS011;32313;48.722;9.362;2022-09-09T02:58:18;10.47;;;6.83;;
46589;SDS011;32313;48.722;9.362;2022-09-09T03:00:52;7.77;;;6.30;;
46589;SDS011;32313;48.722;9.362;2022-09-09T03:03:19;8.07;;;6.83;;
46589;SDS011;32313;48.722;9.362;2022-09-09T03:05:47;10.73;;;6.77;;
46589;SDS011;32313;48.722;9.362;2022-09-09T03:08:13;10.50;;;7.10;;
46589;SDS011;32313;48.722;9.362;2022-09-09T03:10:40;8.17;;;6.30;;
46589;SDS011;32313;48.722;9.362;2022-09-09T03:13:06;8.27;;;6.20;;
46589;SDS011;32313;48.722;9.362;2022-09-09T03:15:36;7.00;;;6.03;;
46589;SDS011;32313;48.722;9.362;2022-09-09T03:18:04;7.80;;;5.97;;
46589;SDS011;32313;48.722;9.362;2022-09-09T03:20:30;8.30;;;5.83;;
46589;SDS011;32313;48.722;9.362;2022-09-09T03:22:56;8.27;;;6.40;;
46589;SDS011;32313;48.722;9.362;2022-09-09T03:25:22;6.93;;;6.17;;
46589;SDS011;32313;48.722;9.362;2022-09-09T03:27:50;6.40;;;5.80;;
46589;SDS011;32313;48.722;9.362;2022-09-09T03:30:20;6.10;;;5.50;;
46589;SDS011;32313;48.722;9.362;2022-09-09T03:32:47;8.07;;;5.80;;
46589;SDS011;32313;48.722;9.362;2022-09-09T03:35:13;10.03;;;5.53;;
46589;SDS011;32313;48.722;9.362;2022-09-09T03:37:39;5.53;;;4.90;;
46589;SDS011;32313;48.722;9.362;2022-09-09T03:40:04;6.40;;;4.83;;
46589;SDS011;32313;48.722;9.362;2022-09-09T03:42:31;7.00;;;5.10;;
46589;SDS011;32313;48.722;9.362;2022-09-09T03:44:58;6.43;;;4.77;;
46589;SDS011;32313;48.722;9.362;2022-09-09T03:47:25;7.87;;;5.33;;
46589;SDS011;32313;48.722;9.362;2022-09-09T03:49:56;8.00;;;5.80;;
46589;SDS011;32313;48.722;9.362;2022-09-09T03:52:21;7.73;;;5.23;;
46589;SDS011;32313;48.722;9.362;2022-09-09T03:54:51;7.13;;;5.00;;
46589;SDS011;32313;48.722;9.362;2022-09-09T03:57:18;7.60;;;5.00;;
46589;SDS011;32313;48.722;9.362;2022-09-09T03:59:44;4.77;;;4.40;;
46589;SDS011;32313;48.722;9.362;2022-09-09T04:02:10;4.07;;;3.67;;
46589;SDS011;32313;48.722;9.362;2022-09-09T04:04:36;9.60;;;4.47;;
46589;SDS011;32313;48.722;9.362;2022-09-09T04:07:02;7.53;;;4.97;;
46589;SDS011;32313;48.722;9.362;2022-09-09T04:09:40;6.33;;;4.57;;
46589;SDS011;32313;48.722;9.362;2022-09-09T04:12:06;6.40;;;4.97;;
46589;SDS011;32313;48.722;9.362;2022-09-09T04:14:33;7.23;;;4.77;;
46589;SDS011;32313;48.722;9.362;2022-09-09T04:16:59;7.00;;;4.93;;
46589;SDS011;32313;48.722;9.362;2022-09-09T04:19:25;5.40;;;4.30;;
46589;SDS011;32313;48.722;9.362;2022-09-09T04:21:51;7.27;;;5.00;;
46589;SDS011;32313;48.722;9.362;2022-09-09T04:24:19;5.70;;;4.53;;
46589;SDS011;32313;48.722;9.362;2022-09-09T04:26:48;8.67;;;5.13;;
46589;SDS011;32313;48.722;9.362;2022-09-09T04:29:14;9.13;;;4.80;;
46589;SDS011;32313;48.722;9.362;2022-09-09T04:31:40;6.40;;;4.50;;
46589;SDS011;32313;48.722;9.362;2022-09-09T04:34:08;4.97;;;4.37;;
46589;SDS011;32313;48.722;9.362;2022-09-09T04:36:34;5.33;;;4.63;;
46589;SDS011;32313;48.722;9.362;2022-09-09T04:39:03;4.90;;;4.33;;
46589;SDS011;32313;48.722;9.362;2022-09-09T04:41:29;8.33;;;4.87;;
46589;SDS011;32313;48.722;9.362;2022-09-09T04:43:56;5.80;;;4.90;;
46589;SDS011;32313;48.722;9.362;2022-09-09T04:46:22;5.77;;;4.97;;
46589;SDS011;32313;48.722;9.362;2022-09-09T04:48:49;7.03;;;5.03;;
46589;SDS011;32313;48.722;9.362;2022-09-09T04:51:16;5.57;;;4.47;;
46589;SDS011;32313;48.722;9.362;2022-09-09T04:53:44;10.33;;;4.97;;
46589;SDS011;32313;48.722;9.362;2022-09-09T04:56:13;7.17;;;5.20;;
46589;SDS011;32313;48.722;9.362;2022-09-09T04:58:45;6.93;;;5.13;;
46589;SDS011;32313;48.722;9.362;2022-09-09T05:01:12;7.17;;;5.50;;
46589;SDS011;32313;48.722;9.362;2022-09-09T05:03:44;11.70;;;5.50;;
46589;SDS011;32313;48.722;9.362;2022-09-09T05:06:13;8.07;;;5.10;;
46589;SDS011;32313;48.722;9.362;2022-09-09T05:08:41;7.97;;;5.83;;
46589;SDS011;32313;48.722;9.362;2022-09-09T05:13:54;7.87;;;5.23;;
46589;SDS011;32313;48.722;9.362;2022-09-09T05:16:20;8.83;;;5.37;;
46589;SDS011;32313;48.722;9.362;2022-09-09T05:18:48;6.57;;;4.93;;
46589;SDS011;32313;48.722;9.362;2022-09-09T05:21:18;7.83;;;5.10;;
46589;SDS011;32313;48.722;9.362;2022-09-09T05:23:45;6.93;;;5.37;;
46589;SDS011;32313;48.722;9.362;2022-09-09T05:26:12;8.70;;;5.57;;
46589;SDS011;32313;48.722;9.362;2022-09-09T05:28:40;6.47;;;5.67;;
46589;SDS011;32313;48.722;9.362;2022-09-09T05:31:07;7.37;;;5.87;;
46589;SDS011;32313;48.722;9.362;2022-09-09T05:33:36;8.90;;;6.73;;
46589;SDS011;32313;48.722;9.362;2022-09-09T05:36:04;6.07;;;5.43;;
46589;SDS011;32313;48.722;9.362;2022-09-09T05:38:32;8.80;;;6.33;;
46589;SDS011;32313;48.722;9.362;2022-09-09T05:40:59;9.17;;;6.00;;
46589;SDS011;32313;48.722;9.362;2022-09-09T05:43:27;10.00;;;5.90;;
46589;SDS011;32313;48.722;9.362;2022-09-09T05:48:33;9.27;;;5.40;;
46589;SDS011;32313;48.722;9.362;2022-09-09T05:51:10;7.07;;;4.77;;
46589;SDS011;32313;48.722;9.362;2022-09-09T05:53:43;8.80;;;4.80;;
46589;SDS011;32313;48.722;9.362;2022-09-09T05:58:41;6.17;;;4.70;;
46589;SDS011;32313;48.722;9.362;2022-09-09T06:01:13;12.43;;;4.93;;
46589;SDS011;32313;48.722;9.362;2022-09-09T06:03:44;8.90;;;5.67;;
46589;SDS011;32313;48.722;9.362;2022-09-09T06:06:12;6.83;;;4.53;;
46589;SDS011;32313;48.722;9.362;2022-09-09T06:08:41;6.80;;;3.80;;
46589;SDS011;32313;48.722;9.362;2022-09-09T06:13:43;5.67;;;4.00;;
46589;SDS011;32313;48.722;9.362;2022-09-09T06:16:09;4.37;;;3.97;;
46589;SDS011;32313;48.722;9.362;2022-09-09T06:18:38;6.03;;;4.50;;
46589;SDS011;32313;48.722;9.362;2022-09-09T06:21:05;6.80;;;4.00;;
46589;SDS011;32313;48.722;9.362;2022-09-09T06:23:34;6.00;;;4.70;;
46589;SDS011;32313;48.722;9.362;2022-09-09T06:26:07;9.30;;;4.73;;
46589;SDS011;32313;48.722;9.362;2022-09-09T06:28:36;9.37;;;5.33;;
46589;SDS011;32313;48.722;9.362;2022-09-09T06:31:04;12.47;;;5.93;;
46589;SDS011;32313;48.722;9.362;2022-09-09T06:33:35;9.17;;;5.27;;
46589;SDS011;32313;48.722;9.362;2022-09-09T06:36:16;6.60;;;5.00;;
46589;SDS011;32313;48.722;9.362;2022-09-09T06:38:48;8.40;;;5.40;;
46589;SDS011;32313;48.722;9.362;2022-09-09T06:41:15;9.17;;;6.27;;
46589;SDS011;32313;48.722;9.362;2022-09-09T06:43:44;13.40;;;8.47;;
46589;SDS011;32313;48.722;9.362;2022-09-09T06:46:15;16.70;;;10.83;;
46589;SDS011;32313;48.722;9.362;2022-09-09T06:48:44;21.20;;;14.43;;
46589;SDS011;32313;48.722;9.362;2022-09-09T06:51:19;16.83;;;12.03;;
46589;SDS011;32313;48.722;9.362;2022-09-09T06:53:53;23.83;;;14.40;;
46589;SDS011;32313;48.722;9.362;2022-09-09T06:56:26;20.43;;;12.80;;
46589;SDS011;32313;48.722;9.362;2022-09-09T06:58:56;19.77;;;11.60;;
46589;SDS011;32313;48.722;9.362;2022-09-09T07:01:27;15.63;;;9.73;;
46589;SDS011;32313;48.722;9.362;2022-09-09T07:03:57;17.17;;;11.53;;
46589;SDS011;32313;48.722;9.362;2022-09-09T07:08:57;13.33;;;8.17;;
46589;SDS011;32313;48.722;9.362;2022-09-09T07:11:28;11.97;;;6.73;;
46589;SDS011;32313;48.722;9.362;2022-09-09T07:13:56;8.40;;;6.17;;
46589;SDS011;32313;48.722;9.362;2022-09-09T07:16:23;8.10;;;4.87;;
46589;SDS011;32313;48.722;9.362;2022-09-09T07:18:50;10.30;;;4.63;;
46589;SDS011;32313;48.722;9.362;2022-09-09T07:21:16;4.70;;;3.13;;
46589;SDS011;32313;48.722;9.362;2022-09-09T07:23:43;4.70;;;2.63;;
46589;SDS011;32313;48.722;9.362;2022-09-09T07:26:10;10.97;;;2.80;;
46589;SDS011;32313;48.722;9.362;2022-09-09T07:28:37;9.03;;;2.40;;
46589;SDS011;32313;48.722;9.362;2022-09-09T07:31:03;3.70;;;2.40;;
46589;SDS011;32313;48.722;9.362;2022-09-09T07:33:32;5.80;;;2.27;;
46589;SDS011;32313;48.722;9.362;2022-09-09T07:36:03;5.27;;;2.60;;
46589;SDS011;32313;48.722;9.362;2022-09-09T07:38:45;4.33;;;1.83;;
46589;SDS011;32313;48.722;9.362;2022-09-09T07:41:14;5.63;;;2.00;;
46589;SDS011;32313;48.722;9.362;2022-09-09T07:43:43;8.00;;;2.20;;
46589;SDS011;32313;48.722;9.362;2022-09-09T07:46:12;6.50;;;2.37;;
46589;SDS011;32313;48.722;9.362;2022-09-09T07:48:42;4.03;;;2.50;;
46589;SDS011;32313;48.722;9.362;2022-09-09T07:51:14;3.83;;;2.00;;
46589;SDS011;32313;48.722;9.362;2022-09-09T07:53:46;3.03;;;2.23;;
46589;SDS011;32313;48.722;9.362;2022-09-09T07:56:13;6.07;;;2.30;;
46589;SDS011;32313;48.722;9.362;2022-09-09T07:58:44;4.50;;;2.50;;
46589;SDS011;32313;48.722;9.362;2022-09-09T08:01:15;7.63;;;2.80;;
46589;SDS011;32313;48.722;9.362;2022-09-09T08:03:44;7.33;;;2.67;;
46589;SDS011;32313;48.722;9.362;2022-09-09T08:06:12;5.00;;;2.47;;
46589;SDS011;32313;48.722;9.362;2022-09-09T08:08:39;5.87;;;2.50;;
46589;SDS011;32313;48.722;9.362;2022-09-09T08:11:13;6.73;;;2.37;;
46589;SDS011;32313;48.722;9.362;2022-09-09T08:13:41;5.77;;;2.10;;
46589;SDS011;32313;48.722;9.362;2022-09-09T08:16:10;6.10;;;1.83;;
46589;SDS011;32313;48.722;9.362;2022-09-09T08:18:42;4.00;;;1.67;;
46589;SDS011;32313;48.722;9.362;2022-09-09T08:21:12;4.57;;;1.87;;
46589;SDS011;32313;48.722;9.362;2022-09-09T08:23:41;3.87;;;2.10;;
46589;SDS011;32313;48.722;9.362;2022-09-09T08:26:12;4.20;;;1.97;;
46589;SDS011;32313;48.722;9.362;2022-09-09T08:28:40;3.93;;;1.70;;
46589;SDS011;32313;48.722;9.362;2022-09-09T08:31:12;5.37;;;1.80;;
46589;SDS011;32313;48.722;9.362;2022-09-09T08:33:41;1.93;;;1.20;;
46589;SDS011;32313;48.722;9.362;2022-09-09T08:36:11;4.03;;;1.67;;
46589;SDS011;32313;48.722;9.362;2022-09-09T08:38:40;4.33;;;1.73;;
46589;SDS011;32313;48.722;9.362;2022-09-09T08:47:13;2.70;;;1.63;;
46589;SDS011;32313;48.722;9.362;2022-09-09T08:52:38;3.27;;;1.57;;
46589;SDS011;32313;48.722;9.362;2022-09-09T08:57:44;3.90;;;1.50;;
46589;SDS011;32313;48.722;9.362;2022-09-09T09:00:11;2.20;;;1.23;;
46589;SDS011;32313;48.722;9.362;2022-09-09T09:05:31;3.07;;;1.43;;
46589;SDS011;32313;48.722;9.362;2022-09-09T09:10:48;2.77;;;1.20;;
46589;SDS011;32313;48.722;9.362;2022-09-09T09:16:06;3.10;;;1.40;;
46589;SDS011;32313;48.722;9.362;2022-09-09T09:18:42;4.07;;;1.43;;
46589;SDS011;32313;48.722;9.362;2022-09-09T09:21:16;3.33;;;1.40;;
46589;SDS011;32313;48.722;9.362;2022-09-09T09:24:01;2.97;;;1.23;;
46589;SDS011;32313;48.722;9.362;2022-09-09T09:26:33;2.43;;;1.20;;
46589;SDS011;32313;48.722;9.362;2022-09-09T09:29:08;2.97;;;1.40;;
46589;SDS011;32313;48.722;9.362;2022-09-09T09:31:37;4.47;;;1.33;;
46589;SDS011;32313;48.722;9.362;2022-09-09T09:34:03;3.67;;;1.43;;
46589;SDS011;32313;48.722;9.362;2022-09-09T09:36:35;3.20;;;1.10;;
46589;SDS011;32313;48.722;9.362;2022-09-09T09:39:06;2.03;;;1.33;;
46589;SDS011;32313;48.722;9.362;2022-09-09T09:41:39;3.30;;;1.50;;
46589;SDS011;32313;48.722;9.362;2022-09-09T09:47:05;3.60;;;1.38;;
46589;SDS011;32313;48.722;9.362;2022-09-09T09:52:53;2.00;;;0.90;;
46589;SDS011;32313;48.722;9.362;2022-09-09T09:55:21;5.20;;;1.40;;
46589;SDS011;32313;48.722;9.362;2022-09-09T09:57:49;3.70;;;1.27;;
46589;SDS011;32313;48.722;9.362;2022-09-09T10:00:16;3.83;;;1.30;;
46589;SDS011;32313;48.722;9.362;2022-09-09T10:02:51;3.63;;;0.93;;
46589;SDS011;32313;48.722;9.362;2022-09-09T10:05:26;2.03;;;1.13;;
46589;SDS011;32313;48.722;9.362;2022-09-09T10:10:37;1.90;;;0.85;;
46589;SDS011;32313;48.722;9.362;2022-09-09T10:21:20;2.22;;;1.05;;
46589;SDS011;32313;48.722;9.362;2022-09-09T10:32:48;2.00;;;1.10;;
46589;SDS011;32313;48.722;9.362;2022-09-09T10:38:26;2.28;;;1.05;;
46589;SDS011;32313;48.722;9.362;2022-09-09T10:41:18;2.83;;;1.05;;
46589;SDS011;32313;48.722;9.362;2022-09-09T10:49:20;3.47;;;1.38;;
46589;SDS011;32313;48.722;9.362;2022-09-09T10:57:17;2.97;;;1.00;;
46589;SDS011;32313;48.722;9.362;2022-09-09T11:00:05;2.47;;;1.10;;
46589;SDS011;32313;48.722;9.362;2022-09-09T11:02:39;3.03;;;1.40;;
46589;SDS011;32313;48.722;9.362;2022-09-09T11:05:18;2.90;;;1.08;;
46589;SDS011;32313;48.722;9.362;2022-09-09T11:13:42;3.00;;;1.45;;
46589;SDS011;32313;48.722;9.362;2022-09-09T11:19:00;2.38;;;1.08;;
46589;SDS011;32313;48.722;9.362;2022-09-09T11:21:40;1.88;;;1.00;;
46589;SDS011;32313;48.722;9.362;2022-09-09T11:24:16;1.77;;;1.05;;
46589;SDS011;32313;48.722;9.362;2022-09-09T11:27:11;2.60;;;1.30;;
46589;SDS011;32313;48.722;9.362;2022-09-09T11:29:56;2.25;;;1.15;;
46589;SDS011;32313;48.722;9.362;2022-09-09T11:32:35;5.20;;;1.57;;
46589;SDS011;32313;48.722;9.362;2022-09-09T11:40:23;4.93;;;1.70;;
46589;SDS011;32313;48.722;9.362;2022-09-09T11:43:14;9.27;;;2.13;;
46589;SDS011;32313;48.722;9.362;2022-09-09T11:45:41;9.30;;;2.53;;
46589;SDS011;32313;48.722;9.362;2022-09-09T11:51:07;2.70;;;1.80;;
46589;SDS011;32313;48.722;9.362;2022-09-09T11:53:35;2.57;;;1.50;;
46589;SDS011;32313;48.722;9.362;2022-09-09T11:56:22;4.03;;;1.57;;
46589;SDS011;32313;48.722;9.362;2022-09-09T11:59:04;4.20;;;2.10;;
46589;SDS011;32313;48.722;9.362;2022-09-09T12:01:43;8.77;;;2.50;;
46589;SDS011;32313;48.722;9.362;2022-09-09T12:04:20;5.67;;;2.10;;
46589;SDS011;32313;48.722;9.362;2022-09-09T12:06:52;2.47;;;1.40;;
46589;SDS011;32313;48.722;9.362;2022-09-09T12:09:29;3.73;;;1.57;;
46589;SDS011;32313;48.722;9.362;2022-09-09T12:19:47;1.23;;;0.90;;
46589;SDS011;32313;48.722;9.362;2022-09-09T12:22:26;0.70;;;0.70;;
46589;SDS011;32313;48.722;9.362;2022-09-09T12:30:52;1.20;;;0.90;;
46589;SDS011;32313;48.722;9.362;2022-09-09T12:33:49;0.77;;;0.77;;
46589;SDS011;32313;48.722;9.362;2022-09-09T12:36:18;0.90;;;0.63;;
46589;SDS011;32313;48.722;9.362;2022-09-09T12:38:48;1.73;;;1.00;;
46589;SDS011;32313;48.722;9.362;2022-09-09T12:41:19;2.70;;;1.10;;
46589;SDS011;32313;48.722;9.362;2022-09-09T12:43:50;1.03;;;0.60;;
46589;SDS011;32313;48.722;9.362;2022-09-09T12:46:39;1.47;;;0.70;;
46589;SDS011;32313;48.722;9.362;2022-09-09T12:52:04;3.80;;;1.13;;
46589;SDS011;32313;48.722;9.362;2022-09-09T12:54:43;2.60;;;0.83;;
46589;SDS011;32313;48.722;9.362;2022-09-09T12:57:16;2.33;;;0.80;;
46589;SDS011;32313;48.722;9.362;2022-09-09T12:59:43;1.57;;;0.70;;
46589;SDS011;32313;48.722;9.362;2022-09-09T13:02:17;2.80;;;1.00;;
46589;SDS011;32313;48.722;9.362;2022-09-09T13:04:44;2.93;;;1.07;;
46589;SDS011;32313;48.722;9.362;2022-09-09T13:07:12;3.97;;;1.20;;
46589;SDS011;32313;48.722;9.362;2022-09-09T13:09:38;3.00;;;1.20;;
46589;SDS011;32313;48.722;9.362;2022-09-09T13:12:05;3.23;;;1.30;;
46589;SDS011;32313;48.722;9.362;2022-09-09T13:14:38;3.10;;;1.10;;
46589;SDS011;32313;48.722;9.362;2022-09-09T13:17:04;1.17;;;0.77;;
46589;SDS011;32313;48.722;9.362;2022-09-09T13:19:37;3.30;;;1.27;;
46589;SDS011;32313;48.722;9.362;2022-09-09T13:22:11;1.93;;;0.90;;
46589;SDS011;32313;48.722;9.362;2022-09-09T13:25:02;2.37;;;1.07;;
46589;SDS011;32313;48.722;9.362;2022-09-09T13:27:57;3.00;;;1.27;;
46589;SDS011;32313;48.722;9.362;2022-09-09T13:36:12;3.30;;;1.10;;
46589;SDS011;32313;48.722;9.362;2022-09-09T13:41:21;3.90;;;1.00;;
46589;SDS011;32313;48.722;9.362;2022-09-09T13:43:51;2.53;;;0.97;;
46589;SDS011;32313;48.722;9.362;2022-09-09T13:46:26;2.83;;;1.10;;
46589;SDS011;32313;48.722;9.362;2022-09-09T13:48:59;2.50;;;0.90;;
46589;SDS011;32313;48.722;9.362;2022-09-09T13:51:47;3.27;;;1.17;;
46589;SDS011;32313;48.722;9.362;2022-09-09T13:54:16;2.00;;;1.10;;
46589;SDS011;32313;48.722;9.362;2022-09-09T13:56:46;1.77;;;1.07;;
46589;SDS011;32313;48.722;9.362;2022-09-09T13:59:13;3.00;;;0.97;;
46589;SDS011;32313;48.722;9.362;2022-09-09T14:01:40;1.23;;;0.90;;
46589;SDS011;32313;48.722;9.362;2022-09-09T14:04:06;1.87;;;1.07;;
46589;SDS011;32313;48.722;9.362;2022-09-09T14:06:34;0.90;;;0.77;;
46589;SDS011;32313;48.722;9.362;2022-09-09T14:09:03;4.93;;;1.20;;
46589;SDS011;32313;48.722;9.362;2022-09-09T14:11:29;3.38;;;1.10;;
46589;SDS011;32313;48.722;9.362;2022-09-09T14:13:55;2.33;;;0.90;;
46589;SDS011;32313;48.722;9.362;2022-09-09T14:16:21;1.57;;;0.83;;
46589;SDS011;32313;48.722;9.362;2022-09-09T14:18:46;2.35;;;1.30;;
46589;SDS011;32313;48.722;9.362;2022-09-09T14:21:13;2.53;;;0.90;;
46589;SDS011;32313;48.722;9.362;2022-09-09T14:23:39;1.70;;;0.90;;
46589;SDS011;32313;48.722;9.362;2022-09-09T14:26:05;1.60;;;0.80;;
46589;SDS011;32313;48.722;9.362;2022-09-09T14:28:31;3.03;;;1.10;;
46589;SDS011;32313;48.722;9.362;2022-09-09T14:31:02;3.10;;;1.20;;
46589;SDS011;32313;48.722;9.362;2022-09-09T14:33:29;2.35;;;0.90;;
46589;SDS011;32313;48.722;9.362;2022-09-09T14:35:59;1.43;;;0.90;;
46589;SDS011;32313;48.722;9.362;2022-09-09T14:38:28;2.78;;;1.00;;
46589;SDS011;32313;48.722;9.362;2022-09-09T14:40:55;3.13;;;1.03;;
46589;SDS011;32313;48.722;9.362;2022-09-09T14:43:21;1.17;;;0.80;;
46589;SDS011;32313;48.722;9.362;2022-09-09T14:45:47;1.45;;;0.80;;
46589;SDS011;32313;48.722;9.362;2022-09-09T14:48:13;1.60;;;1.00;;
46589;SDS011;32313;48.722;9.362;2022-09-09T14:50:40;2.78;;;0.93;;
46589;SDS011;32313;48.722;9.362;2022-09-09T14:53:06;3.33;;;1.02;;
46589;SDS011;32313;48.722;9.362;2022-09-09T14:55:33;2.07;;;1.10;;
46589;SDS011;32313;48.722;9.362;2022-09-09T14:57:59;2.03;;;0.80;;
46589;SDS011;32313;48.722;9.362;2022-09-09T15:00:25;1.60;;;0.83;;
46589;SDS011;32313;48.722;9.362;2022-09-09T15:02:52;1.20;;;0.63;;
46589;SDS011;32313;48.722;9.362;2022-09-09T15:05:19;1.90;;;1.03;;
46589;SDS011;32313;48.722;9.362;2022-09-09T15:07:44;2.43;;;1.50;;
46589;SDS011;32313;48.722;9.362;2022-09-09T15:10:10;4.97;;;1.00;;
46589;SDS011;32313;48.722;9.362;2022-09-09T15:12:36;2.27;;;0.90;;
46589;SDS011;32313;48.722;9.362;2022-09-09T15:15:03;2.63;;;1.17;;
46589;SDS011;32313;48.722;9.362;2022-09-09T15:17:30;6.27;;;4.87;;
46589;SDS011;32313;48.722;9.362;2022-09-09T15:19:55;1.90;;;1.10;;
46589;SDS011;32313;48.722;9.362;2022-09-09T15:22:22;2.15;;;0.80;;
46589;SDS011;32313;48.722;9.362;2022-09-09T15:24:49;2.20;;;0.70;;
46589;SDS011;32313;48.722;9.362;2022-09-09T15:27:15;2.43;;;1.03;;
46589;SDS011;32313;48.722;9.362;2022-09-09T15:29:41;1.73;;;0.83;;
46589;SDS011;32313;48.722;9.362;2022-09-09T15:32:07;1.70;;;1.00;;
46589;SDS011;32313;48.722;9.362;2022-09-09T15:34:33;2.80;;;1.10;;
46589;SDS011;32313;48.722;9.362;2022-09-09T15:36:58;2.03;;;1.20;;
46589;SDS011;32313;48.722;9.362;2022-09-09T15:39:25;1.87;;;1.03;;
46589;SDS011;32313;48.722;9.362;2022-09-09T15:41:51;3.57;;;1.57;;
46589;SDS011;32313;48.722;9.362;2022-09-09T15:44:16;2.43;;;1.30;;
46589;SDS011;32313;48.722;9.362;2022-09-09T15:46:45;1.47;;;1.00;;
46589;SDS011;32313;48.722;9.362;2022-09-09T15:49:14;3.40;;;1.00;;
46589;SDS011;32313;48.722;9.362;2022-09-09T15:51:50;2.20;;;0.90;;
46589;SDS011;32313;48.722;9.362;2022-09-09T15:54:22;2.60;;;1.10;;
46589;SDS011;32313;48.722;9.362;2022-09-09T15:56:53;2.07;;;1.07;;
46589;SDS011;32313;48.722;9.362;2022-09-09T15:59:23;3.00;;;1.37;;
46589;SDS011;32313;48.722;9.362;2022-09-09T16:01:50;2.50;;;1.20;;
46589;SDS011;32313;48.722;9.362;2022-09-09T16:04:17;1.90;;;1.13;;
46589;SDS011;32313;48.722;9.362;2022-09-09T16:06:49;3.10;;;1.40;;
46589;SDS011;32313;48.722;9.362;2022-09-09T16:09:19;5.37;;;1.70;;
46589;SDS011;32313;48.722;9.362;2022-09-09T16:11:45;2.83;;;1.00;;
46589;SDS011;32313;48.722;9.362;2022-09-09T16:14:14;1.47;;;1.07;;
46589;SDS011;32313;48.722;9.362;2022-09-09T16:16:41;7.13;;;1.33;;
46589;SDS011;32313;48.722;9.362;2022-09-09T16:19:11;0.73;;;0.73;;
46589;SDS011;32313;48.722;9.362;2022-09-09T16:21:42;3.80;;;1.40;;
46589;SDS011;32313;48.722;9.362;2022-09-09T16:24:10;2.23;;;1.23;;
46589;SDS011;32313;48.722;9.362;2022-09-09T16:26:38;4.23;;;1.50;;
46589;SDS011;32313;48.722;9.362;2022-09-09T16:29:08;3.07;;;1.17;;
46589;SDS011;32313;48.722;9.362;2022-09-09T16:31:34;2.33;;;1.20;;
46589;SDS011;32313;48.722;9.362;2022-09-09T16:33:59;1.77;;;1.03;;
46589;SDS011;32313;48.722;9.362;2022-09-09T16:36:27;3.17;;;1.20;;
46589;SDS011;32313;48.722;9.362;2022-09-09T16:38:56;6.23;;;1.50;;
46589;SDS011;32313;48.722;9.362;2022-09-09T16:41:23;2.27;;;1.27;;
46589;SDS011;32313;48.722;9.362;2022-09-09T16:43:52;2.03;;;1.10;;
46589;SDS011;32313;48.722;9.362;2022-09-09T16:46:19;2.70;;;1.00;;
46589;SDS011;32313;48.722;9.362;2022-09-09T16:48:47;2.40;;;1.27;;
46589;SDS011;32313;48.722;9.362;2022-09-09T16:51:14;2.33;;;1.10;;
46589;SDS011;32313;48.722;9.362;2022-09-09T16:53:40;1.27;;;1.17;;
46589;SDS011;32313;48.722;9.362;2022-09-09T16:56:10;2.23;;;1.17;;
46589;SDS011;32313;48.722;9.362;2022-09-09T16:58:49;2.30;;;1.20;;
46589;SDS011;32313;48.722;9.362;2022-09-09T17:01:16;2.13;;;1.10;;
46589;SDS011;32313;48.722;9.362;2022-09-09T17:03:41;2.77;;;1.10;;
46589;SDS011;32313;48.722;9.362;2022-09-09T17:06:13;2.73;;;1.33;;
46589;SDS011;32313;48.722;9.362;2022-09-09T17:08:40;2.40;;;1.03;;
46589;SDS011;32313;48.722;9.362;2022-09-09T17:11:13;1.83;;;1.20;;
46589;SDS011;32313;48.722;9.362;2022-09-09T17:13:41;2.97;;;1.13;;
46589;SDS011;32313;48.722;9.362;2022-09-09T17:16:17;2.47;;;1.50;;
46589;SDS011;32313;48.722;9.362;2022-09-09T17:18:46;2.87;;;1.43;;
46589;SDS011;32313;48.722;9.362;2022-09-09T17:21:13;1.73;;;1.20;;
46589;SDS011;32313;48.722;9.362;2022-09-09T17:23:40;1.77;;;1.10;;
46589;SDS011;32313;48.722;9.362;2022-09-09T17:26:07;1.43;;;1.30;;
46589;SDS011;32313;48.722;9.362;2022-09-09T17:28:35;2.13;;;1.50;;
46589;SDS011;32313;48.722;9.362;2022-09-09T17:31:04;1.60;;;1.50;;
46589;SDS011;32313;48.722;9.362;2022-09-09T17:33:35;2.93;;;2.00;;
46589;SDS011;32313;48.722;9.362;2022-09-09T17:36:10;3.00;;;1.50;;
46589;SDS011;32313;48.722;9.362;2022-09-09T17:38:39;1.23;;;1.13;;